Terminal Aerodrome Forecast
Issued by NWS

Home | Current Version | Previous Version | Text Only | Print | Product List | Glossary On
Versions: 1 2 3 4 5 6 7 8 9 10 11 12 13 14
000
FTUS42 KTBW 280500
TAFLAL
TAF
KLAL 280535Z 2806/2906 34006KT P6SM SKC
     FM281800 36010KT P6SM SKC
     FM290200 03006KT P6SM SKC
      AMD NOT SKED TIL 281200=

USA.gov is the U.S. government's official web portal to all federal, state and local government web resources and services.